Time,TemperatureF,DewpointF,PressureIn,WindDirection,WindDirectionDegrees,WindSpeedMPH,WindSpeedGustMPH,Humidity,HourlyPrecipIn,Conditions,Clouds,dailyrainin,SoftwareType,DateUTC
2013-10-10 00:55:00,76.3,72.2,29.95,North,5,0.0,5.0,87,0.00,,SCT100,0.00,VWS V14.00,2013-10-10 04:55:00,
2013-10-10 01:55:00,77.5,73.7,29.95,East,95,7.0,13.0,88,0.00,,FEW120,0.00,VWS V14.00,2013-10-10 05:55:00,
2013-10-10 02:55:00,77.0,73.5,29.93,ENE,69,0.0,14.0,89,0.00,,SCT120,0.00,VWS V14.00,2013-10-10 06:55:00,
2013-10-10 03:55:00,75.2,72.4,29.92,ENE,69,1.0,4.0,91,0.00,,BKN110,0.00,VWS V14.00,2013-10-10 07:55:00,
2013-10-10 04:55:00,73.9,71.1,29.93,WNW,302,0.0,4.0,91,0.00,,FEW130,0.00,VWS V14.00,2013-10-10 08:55:00,
2013-10-10 05:55:00,72.6,70.2,29.93,WNW,300,0.0,4.0,92,0.00,,SCT130,0.00,VWS V14.00,2013-10-10 09:55:00,
2013-10-10 06:55:00,72.2,69.8,29.94,WNW,303,0.0,4.0,92,0.00,,FEW060,0.00,VWS V14.00,2013-10-10 10:55:00,
2013-10-10 07:55:00,72.6,70.2,29.94,North,350,0.0,4.0,92,0.00,,SCT060,0.00,VWS V14.00,2013-10-10 11:55:00,
2013-10-10 08:55:00,77.0,72.2,29.96,NNE,15,0.0,7.0,85,0.00,,SCT060,0.00,VWS V14.00,2013-10-10 12:55:00,
2013-10-10 09:55:00,81.8,73.5,29.97,North,360,0.0,9.0,76,0.00,,SCT150,0.00,VWS V14.00,2013-10-10 13:55:00,
2013-10-10 10:55:00,83.4,74.7,29.99,NE,51,3.0,12.0,75,0.00,,SCT150,0.00,VWS V14.00,2013-10-10 14:55:00,
2013-10-10 11:55:00,84.1,74.1,29.98,NE,40,3.0,13.0,72,0.00,,BKN250,0.00,VWS V14.00,2013-10-10 15:55:00,
2013-10-10 12:55:00,84.2,72.5,29.97,North,355,6.0,15.0,68,0.00,,BKN070,0.00,VWS V14.00,2013-10-10 16:55:00,
2013-10-10 13:55:00,84.9,72.3,29.95,NE,46,6.0,16.0,66,0.00,,BKN250,0.00,VWS V14.00,2013-10-10 17:55:00,
2013-10-10 14:55:00,84.7,71.2,29.92,NE,36,9.0,16.0,64,0.00,,BKN250,0.00,VWS V14.00,2013-10-10 18:55:00,
2013-10-10 15:55:00,84.9,70.9,29.92,NE,44,5.0,16.0,63,0.00,,SCT250,0.00,VWS V14.00,2013-10-10 19:55:00,
2013-10-10 16:55:00,83.8,71.7,29.92,NE,40,6.0,19.0,67,0.00,,BKN250,0.00,VWS V14.00,2013-10-10 20:55:00,
2013-10-10 17:55:00,82.5,70.9,29.93,NNE,16,4.0,16.0,68,0.00,,SCT250,0.00,VWS V14.00,2013-10-10 21:55:00,
2013-10-10 18:55:00,80.8,70.5,29.93,NNE,33,4.0,14.0,71,0.00,,BKN250,0.00,VWS V14.00,2013-10-10 22:55:00,
2013-10-10 19:55:00,80.4,70.6,29.94,NE,48,1.0,13.0,72,0.00,,SCT033,0.00,VWS V14.00,2013-10-10 23:55:00,
2013-10-10 20:55:00,80.1,71.1,29.96,NE,56,0.0,11.0,74,0.00,,FEW033,0.00,VWS V14.00,2013-10-11 00:55:00,
2013-10-10 21:55:00,79.9,69.7,29.97,NE,49,7.0,12.0,71,0.00,,SCT029,0.00,VWS V14.00,2013-10-11 01:55:00,
2013-10-10 22:55:00,79.5,69.7,29.97,ENE,65,3.0,12.0,72,0.00,,FEW030,0.00,VWS V14.00,2013-10-11 02:55:00,
2013-10-10 23:56:00,78.5,68.7,29.95,NE,54,2.0,8.0,72,0.00,,FEW032,0.00,VWS V14.00,2013-10-11 03:56:00,